sensor_id;sensor_type;location;lat;lon;timestamp;P1;durP1;ratioP1;P2;durP2;ratioP2
38629;SDS011;24384;51.988;4.644;2023-10-08T00:01:40;24.55;;;6.30;;
38629;SDS011;24384;51.988;4.644;2023-10-08T00:04:07;25.70;;;6.10;;
38629;SDS011;24384;51.988;4.644;2023-10-08T00:06:35;26.40;;;7.47;;
38629;SDS011;24384;51.988;4.644;2023-10-08T00:09:02;24.23;;;6.53;;
38629;SDS011;24384;51.988;4.644;2023-10-08T00:11:36;18.92;;;6.03;;
38629;SDS011;24384;51.988;4.644;2023-10-08T00:14:02;25.60;;;7.70;;
38629;SDS011;24384;51.988;4.644;2023-10-08T00:16:30;27.73;;;7.40;;
38629;SDS011;24384;51.988;4.644;2023-10-08T00:18:58;23.85;;;7.63;;
38629;SDS011;24384;51.988;4.644;2023-10-08T00:21:33;18.15;;;6.45;;
38629;SDS011;24384;51.988;4.644;2023-10-08T00:24:00;24.58;;;8.48;;
38629;SDS011;24384;51.988;4.644;2023-10-08T00:26:28;23.95;;;6.50;;
38629;SDS011;24384;51.988;4.644;2023-10-08T00:28:57;26.60;;;6.93;;
38629;SDS011;24384;51.988;4.644;2023-10-08T00:31:24;26.13;;;7.50;;
38629;SDS011;24384;51.988;4.644;2023-10-08T00:33:55;26.70;;;9.05;;
38629;SDS011;24384;51.988;4.644;2023-10-08T00:36:21;25.00;;;8.13;;
38629;SDS011;24384;51.988;4.644;2023-10-08T00:38:46;17.52;;;5.68;;
38629;SDS011;24384;51.988;4.644;2023-10-08T00:41:17;24.40;;;8.50;;
38629;SDS011;24384;51.988;4.644;2023-10-08T00:43:47;23.42;;;6.93;;
38629;SDS011;24384;51.988;4.644;2023-10-08T00:46:13;25.77;;;6.95;;
38629;SDS011;24384;51.988;4.644;2023-10-08T00:48:49;24.27;;;8.90;;
38629;SDS011;24384;51.988;4.644;2023-10-08T00:51:19;22.50;;;7.85;;
38629;SDS011;24384;51.988;4.644;2023-10-08T00:53:52;19.70;;;7.32;;
38629;SDS011;24384;51.988;4.644;2023-10-08T00:56:32;21.58;;;6.65;;
38629;SDS011;24384;51.988;4.644;2023-10-08T00:59:10;16.63;;;6.45;;
38629;SDS011;24384;51.988;4.644;2023-10-08T01:01:45;21.88;;;7.07;;
38629;SDS011;24384;51.988;4.644;2023-10-08T01:04:16;19.38;;;6.38;;
38629;SDS011;24384;51.988;4.644;2023-10-08T01:06:51;23.27;;;6.70;;
38629;SDS011;24384;51.988;4.644;2023-10-08T01:09:21;21.70;;;6.28;;
38629;SDS011;24384;51.988;4.644;2023-10-08T01:14:57;17.15;;;6.47;;
38629;SDS011;24384;51.988;4.644;2023-10-08T01:17:29;22.92;;;7.45;;
38629;SDS011;24384;51.988;4.644;2023-10-08T01:19:57;23.33;;;7.75;;
38629;SDS011;24384;51.988;4.644;2023-10-08T01:22:34;23.90;;;7.15;;
38629;SDS011;24384;51.988;4.644;2023-10-08T01:24:59;19.98;;;6.57;;
38629;SDS011;24384;51.988;4.644;2023-10-08T01:27:29;20.85;;;6.50;;
38629;SDS011;24384;51.988;4.644;2023-10-08T01:29:59;18.13;;;6.68;;
38629;SDS011;24384;51.988;4.644;2023-10-08T01:32:43;20.10;;;8.00;;
38629;SDS011;24384;51.988;4.644;2023-10-08T01:35:09;26.23;;;8.32;;
38629;SDS011;24384;51.988;4.644;2023-10-08T01:37:52;20.80;;;7.35;;
38629;SDS011;24384;51.988;4.644;2023-10-08T01:40:21;17.42;;;6.15;;
38629;SDS011;24384;51.988;4.644;2023-10-08T01:42:46;16.83;;;6.03;;
38629;SDS011;24384;51.988;4.644;2023-10-08T01:45:16;27.50;;;6.82;;
38629;SDS011;24384;51.988;4.644;2023-10-08T01:47:43;19.10;;;7.88;;
38629;SDS011;24384;51.988;4.644;2023-10-08T01:50:08;23.15;;;6.80;;
38629;SDS011;24384;51.988;4.644;2023-10-08T01:52:46;17.67;;;6.78;;
38629;SDS011;24384;51.988;4.644;2023-10-08T01:55:14;21.67;;;6.88;;
38629;SDS011;24384;51.988;4.644;2023-10-08T01:57:43;16.65;;;7.20;;
38629;SDS011;24384;51.988;4.644;2023-10-08T02:00:09;21.80;;;7.15;;
38629;SDS011;24384;51.988;4.644;2023-10-08T02:02:36;22.33;;;7.63;;
38629;SDS011;24384;51.988;4.644;2023-10-08T02:05:01;22.42;;;7.25;;
38629;SDS011;24384;51.988;4.644;2023-10-08T02:07:27;18.40;;;6.93;;
38629;SDS011;24384;51.988;4.644;2023-10-08T02:09:53;17.30;;;6.15;;
38629;SDS011;24384;51.988;4.644;2023-10-08T02:12:19;25.67;;;7.47;;
38629;SDS011;24384;51.988;4.644;2023-10-08T02:14:44;24.27;;;7.47;;
38629;SDS011;24384;51.988;4.644;2023-10-08T02:17:09;19.60;;;6.55;;
38629;SDS011;24384;51.988;4.644;2023-10-08T02:19:35;19.23;;;7.15;;
38629;SDS011;24384;51.988;4.644;2023-10-08T02:22:02;18.33;;;6.50;;
38629;SDS011;24384;51.988;4.644;2023-10-08T02:24:30;19.02;;;7.15;;
38629;SDS011;24384;51.988;4.644;2023-10-08T02:26:56;20.70;;;6.75;;
38629;SDS011;24384;51.988;4.644;2023-10-08T02:29:25;30.17;;;9.07;;
38629;SDS011;24384;51.988;4.644;2023-10-08T02:31:51;16.13;;;6.35;;
38629;SDS011;24384;51.988;4.644;2023-10-08T02:34:18;16.75;;;6.75;;
38629;SDS011;24384;51.988;4.644;2023-10-08T02:36:44;17.92;;;7.55;;
38629;SDS011;24384;51.988;4.644;2023-10-08T02:39:12;26.65;;;7.78;;
38629;SDS011;24384;51.988;4.644;2023-10-08T02:41:50;15.93;;;6.32;;
38629;SDS011;24384;51.988;4.644;2023-10-08T02:44:16;16.27;;;6.65;;
38629;SDS011;24384;51.988;4.644;2023-10-08T02:46:45;21.23;;;7.72;;
38629;SDS011;24384;51.988;4.644;2023-10-08T02:49:15;32.08;;;9.10;;
38629;SDS011;24384;51.988;4.644;2023-10-08T02:51:48;17.75;;;8.02;;
38629;SDS011;24384;51.988;4.644;2023-10-08T02:54:15;21.00;;;7.47;;
38629;SDS011;24384;51.988;4.644;2023-10-08T02:56:46;19.30;;;7.20;;
38629;SDS011;24384;51.988;4.644;2023-10-08T02:59:12;20.80;;;6.80;;
38629;SDS011;24384;51.988;4.644;2023-10-08T03:01:39;18.67;;;7.30;;
38629;SDS011;24384;51.988;4.644;2023-10-08T03:04:10;17.08;;;7.45;;
38629;SDS011;24384;51.988;4.644;2023-10-08T03:06:45;25.23;;;6.97;;
38629;SDS011;24384;51.988;4.644;2023-10-08T03:09:14;20.58;;;7.85;;
38629;SDS011;24384;51.988;4.644;2023-10-08T03:11:40;20.30;;;5.97;;
38629;SDS011;24384;51.988;4.644;2023-10-08T03:14:11;27.73;;;8.73;;
38629;SDS011;24384;51.988;4.644;2023-10-08T03:16:40;19.20;;;8.32;;
38629;SDS011;24384;51.988;4.644;2023-10-08T03:19:06;25.95;;;9.52;;
38629;SDS011;24384;51.988;4.644;2023-10-08T03:21:31;17.58;;;7.45;;
38629;SDS011;24384;51.988;4.644;2023-10-08T03:24:02;19.27;;;8.23;;
38629;SDS011;24384;51.988;4.644;2023-10-08T03:26:37;22.40;;;7.78;;
38629;SDS011;24384;51.988;4.644;2023-10-08T03:29:04;20.90;;;8.43;;
38629;SDS011;24384;51.988;4.644;2023-10-08T03:31:39;21.00;;;7.85;;
38629;SDS011;24384;51.988;4.644;2023-10-08T03:34:14;23.23;;;7.22;;
38629;SDS011;24384;51.988;4.644;2023-10-08T03:36:40;21.88;;;7.35;;
38629;SDS011;24384;51.988;4.644;2023-10-08T03:39:11;17.92;;;7.70;;
38629;SDS011;24384;51.988;4.644;2023-10-08T03:41:38;22.33;;;7.88;;
38629;SDS011;24384;51.988;4.644;2023-10-08T03:44:05;14.25;;;7.63;;
38629;SDS011;24384;51.988;4.644;2023-10-08T03:46:32;19.58;;;7.78;;
38629;SDS011;24384;51.988;4.644;2023-10-08T03:49:04;20.13;;;8.27;;
38629;SDS011;24384;51.988;4.644;2023-10-08T03:51:50;18.65;;;7.60;;
38629;SDS011;24384;51.988;4.644;2023-10-08T03:54:22;24.73;;;8.43;;
38629;SDS011;24384;51.988;4.644;2023-10-08T03:57:00;17.55;;;6.93;;
38629;SDS011;24384;51.988;4.644;2023-10-08T03:59:26;20.75;;;7.38;;
38629;SDS011;24384;51.988;4.644;2023-10-08T04:01:55;15.52;;;6.90;;
38629;SDS011;24384;51.988;4.644;2023-10-08T04:04:58;17.88;;;8.05;;
38629;SDS011;24384;51.988;4.644;2023-10-08T04:07:25;18.98;;;6.97;;
38629;SDS011;24384;51.988;4.644;2023-10-08T04:10:01;20.70;;;8.43;;
38629;SDS011;24384;51.988;4.644;2023-10-08T04:12:38;22.65;;;8.57;;
38629;SDS011;24384;51.988;4.644;2023-10-08T04:15:11;27.00;;;7.53;;
38629;SDS011;24384;51.988;4.644;2023-10-08T04:17:40;18.83;;;8.90;;
38629;SDS011;24384;51.988;4.644;2023-10-08T04:20:12;25.60;;;9.30;;
38629;SDS011;24384;51.988;4.644;2023-10-08T04:23:04;23.23;;;8.33;;
38629;SDS011;24384;51.988;4.644;2023-10-08T04:25:43;25.83;;;8.05;;
38629;SDS011;24384;51.988;4.644;2023-10-08T04:28:08;19.92;;;8.20;;
38629;SDS011;24384;51.988;4.644;2023-10-08T04:30:39;17.23;;;7.63;;
38629;SDS011;24384;51.988;4.644;2023-10-08T04:33:06;21.65;;;8.55;;
38629;SDS011;24384;51.988;4.644;2023-10-08T04:35:36;19.33;;;7.18;;
38629;SDS011;24384;51.988;4.644;2023-10-08T04:38:09;17.98;;;8.52;;
38629;SDS011;24384;51.988;4.644;2023-10-08T04:40:35;22.35;;;10.10;;
38629;SDS011;24384;51.988;4.644;2023-10-08T04:43:13;18.35;;;8.30;;
38629;SDS011;24384;51.988;4.644;2023-10-08T04:45:40;21.38;;;8.75;;
38629;SDS011;24384;51.988;4.644;2023-10-08T04:48:06;33.67;;;9.80;;
38629;SDS011;24384;51.988;4.644;2023-10-08T04:50:35;23.08;;;8.60;;
38629;SDS011;24384;51.988;4.644;2023-10-08T04:53:02;27.90;;;9.23;;
38629;SDS011;24384;51.988;4.644;2023-10-08T04:55:32;18.48;;;7.97;;
38629;SDS011;24384;51.988;4.644;2023-10-08T04:57:59;13.55;;;6.47;;
38629;SDS011;24384;51.988;4.644;2023-10-08T05:00:25;22.25;;;8.27;;
38629;SDS011;24384;51.988;4.644;2023-10-08T05:03:18;24.67;;;10.10;;
38629;SDS011;24384;51.988;4.644;2023-10-08T05:05:45;24.13;;;8.05;;
38629;SDS011;24384;51.988;4.644;2023-10-08T05:08:21;15.35;;;7.35;;
38629;SDS011;24384;51.988;4.644;2023-10-08T05:11:12;26.17;;;9.00;;
38629;SDS011;24384;51.988;4.644;2023-10-08T05:14:10;15.63;;;7.95;;
38629;SDS011;24384;51.988;4.644;2023-10-08T05:16:42;19.13;;;8.80;;
38629;SDS011;24384;51.988;4.644;2023-10-08T05:19:25;20.13;;;8.88;;
38629;SDS011;24384;51.988;4.644;2023-10-08T05:22:14;19.80;;;6.50;;
38629;SDS011;24384;51.988;4.644;2023-10-08T05:24:46;22.45;;;8.13;;
38629;SDS011;24384;51.988;4.644;2023-10-08T05:27:32;25.75;;;8.85;;
38629;SDS011;24384;51.988;4.644;2023-10-08T05:30:13;17.67;;;8.90;;
38629;SDS011;24384;51.988;4.644;2023-10-08T05:32:53;22.58;;;8.50;;
38629;SDS011;24384;51.988;4.644;2023-10-08T05:35:38;21.85;;;7.97;;
38629;SDS011;24384;51.988;4.644;2023-10-08T05:38:12;15.00;;;6.80;;
38629;SDS011;24384;51.988;4.644;2023-10-08T05:40:42;19.10;;;7.68;;
38629;SDS011;24384;51.988;4.644;2023-10-08T05:43:23;23.67;;;7.28;;
38629;SDS011;24384;51.988;4.644;2023-10-08T05:46:07;19.15;;;6.47;;
38629;SDS011;24384;51.988;4.644;2023-10-08T05:51:30;15.95;;;7.95;;
38629;SDS011;24384;51.988;4.644;2023-10-08T05:54:20;20.80;;;7.03;;
38629;SDS011;24384;51.988;4.644;2023-10-08T05:56:56;16.83;;;7.40;;
38629;SDS011;24384;51.988;4.644;2023-10-08T05:59:34;23.02;;;8.60;;
38629;SDS011;24384;51.988;4.644;2023-10-08T06:02:27;18.48;;;7.93;;
38629;SDS011;24384;51.988;4.644;2023-10-08T06:07:48;18.13;;;6.70;;
38629;SDS011;24384;51.988;4.644;2023-10-08T06:10:31;20.58;;;7.53;;
38629;SDS011;24384;51.988;4.644;2023-10-08T06:13:07;20.48;;;7.18;;
38629;SDS011;24384;51.988;4.644;2023-10-08T06:15:37;18.23;;;6.38;;
38629;SDS011;24384;51.988;4.644;2023-10-08T06:18:24;19.77;;;5.88;;
38629;SDS011;24384;51.988;4.644;2023-10-08T06:20:51;18.77;;;5.75;;
38629;SDS011;24384;51.988;4.644;2023-10-08T06:23:19;17.20;;;5.35;;
38629;SDS011;24384;51.988;4.644;2023-10-08T06:25:47;17.90;;;5.82;;
38629;SDS011;24384;51.988;4.644;2023-10-08T06:28:19;20.15;;;5.93;;
38629;SDS011;24384;51.988;4.644;2023-10-08T06:30:50;18.30;;;4.80;;
38629;SDS011;24384;51.988;4.644;2023-10-08T06:33:20;18.67;;;5.60;;
38629;SDS011;24384;51.988;4.644;2023-10-08T06:35:47;13.57;;;5.47;;
38629;SDS011;24384;51.988;4.644;2023-10-08T06:38:27;25.58;;;7.68;;
38629;SDS011;24384;51.988;4.644;2023-10-08T06:40:55;20.52;;;7.00;;
38629;SDS011;24384;51.988;4.644;2023-10-08T06:43:25;23.10;;;7.43;;
38629;SDS011;24384;51.988;4.644;2023-10-08T06:45:50;26.73;;;8.40;;
38629;SDS011;24384;51.988;4.644;2023-10-08T06:48:22;28.52;;;7.97;;
38629;SDS011;24384;51.988;4.644;2023-10-08T06:50:49;25.92;;;8.40;;
38629;SDS011;24384;51.988;4.644;2023-10-08T06:53:15;40.95;;;11.45;;
38629;SDS011;24384;51.988;4.644;2023-10-08T06:55:43;30.30;;;8.70;;
38629;SDS011;24384;51.988;4.644;2023-10-08T06:58:09;37.40;;;10.30;;
38629;SDS011;24384;51.988;4.644;2023-10-08T07:00:37;34.85;;;10.07;;
38629;SDS011;24384;51.988;4.644;2023-10-08T07:03:04;42.60;;;10.65;;
38629;SDS011;24384;51.988;4.644;2023-10-08T07:05:32;33.75;;;8.98;;
38629;SDS011;24384;51.988;4.644;2023-10-08T07:08:01;26.80;;;7.85;;
38629;SDS011;24384;51.988;4.644;2023-10-08T07:10:31;28.48;;;8.40;;
38629;SDS011;24384;51.988;4.644;2023-10-08T07:12:57;29.58;;;8.15;;
38629;SDS011;24384;51.988;4.644;2023-10-08T07:15:24;27.77;;;7.40;;
38629;SDS011;24384;51.988;4.644;2023-10-08T07:17:51;25.13;;;8.52;;
38629;SDS011;24384;51.988;4.644;2023-10-08T07:20:16;22.70;;;6.78;;
38629;SDS011;24384;51.988;4.644;2023-10-08T07:22:46;25.92;;;8.98;;
38629;SDS011;24384;51.988;4.644;2023-10-08T07:25:19;32.53;;;7.78;;
38629;SDS011;24384;51.988;4.644;2023-10-08T07:27:46;20.25;;;6.13;;
38629;SDS011;24384;51.988;4.644;2023-10-08T07:30:12;17.50;;;7.30;;
38629;SDS011;24384;51.988;4.644;2023-10-08T07:32:38;21.42;;;6.43;;
38629;SDS011;24384;51.988;4.644;2023-10-08T07:35:04;20.30;;;5.80;;
38629;SDS011;24384;51.988;4.644;2023-10-08T07:37:45;21.08;;;6.28;;
38629;SDS011;24384;51.988;4.644;2023-10-08T07:40:10;22.95;;;6.32;;
38629;SDS011;24384;51.988;4.644;2023-10-08T07:42:38;21.92;;;7.32;;
38629;SDS011;24384;51.988;4.644;2023-10-08T07:45:03;29.50;;;6.50;;
38629;SDS011;24384;51.988;4.644;2023-10-08T07:47:29;22.10;;;7.45;;
38629;SDS011;24384;51.988;4.644;2023-10-08T07:49:55;22.27;;;6.10;;
38629;SDS011;24384;51.988;4.644;2023-10-08T07:52:20;21.73;;;6.50;;
38629;SDS011;24384;51.988;4.644;2023-10-08T07:54:46;18.08;;;6.15;;
38629;SDS011;24384;51.988;4.644;2023-10-08T07:57:12;14.90;;;6.72;;
38629;SDS011;24384;51.988;4.644;2023-10-08T07:59:42;27.33;;;6.80;;
38629;SDS011;24384;51.988;4.644;2023-10-08T08:02:11;21.33;;;5.90;;
38629;SDS011;24384;51.988;4.644;2023-10-08T08:04:41;20.75;;;5.57;;
38629;SDS011;24384;51.988;4.644;2023-10-08T08:07:15;13.15;;;5.07;;
38629;SDS011;24384;51.988;4.644;2023-10-08T08:09:48;22.35;;;5.53;;
38629;SDS011;24384;51.988;4.644;2023-10-08T08:12:23;16.08;;;6.25;;
38629;SDS011;24384;51.988;4.644;2023-10-08T08:14:50;14.10;;;5.60;;
38629;SDS011;24384;51.988;4.644;2023-10-08T08:17:17;23.73;;;5.90;;
38629;SDS011;24384;51.988;4.644;2023-10-08T08:19:44;16.45;;;5.38;;
38629;SDS011;24384;51.988;4.644;2023-10-08T08:22:12;24.77;;;6.97;;
38629;SDS011;24384;51.988;4.644;2023-10-08T08:24:40;22.33;;;6.82;;
38629;SDS011;24384;51.988;4.644;2023-10-08T08:27:10;22.67;;;6.25;;
38629;SDS011;24384;51.988;4.644;2023-10-08T08:29:56;20.83;;;6.32;;
38629;SDS011;24384;51.988;4.644;2023-10-08T08:32:24;19.35;;;6.30;;
38629;SDS011;24384;51.988;4.644;2023-10-08T08:34:49;18.70;;;6.70;;
38629;SDS011;24384;51.988;4.644;2023-10-08T08:37:18;21.63;;;7.72;;
38629;SDS011;24384;51.988;4.644;2023-10-08T08:39:47;21.35;;;7.88;;
38629;SDS011;24384;51.988;4.644;2023-10-08T08:42:12;16.52;;;7.85;;
38629;SDS011;24384;51.988;4.644;2023-10-08T08:44:41;21.88;;;5.95;;
38629;SDS011;24384;51.988;4.644;2023-10-08T08:47:14;15.90;;;5.88;;
38629;SDS011;24384;51.988;4.644;2023-10-08T08:49:43;22.52;;;6.38;;
38629;SDS011;24384;51.988;4.644;2023-10-08T08:52:12;12.80;;;5.28;;
38629;SDS011;24384;51.988;4.644;2023-10-08T08:54:39;17.20;;;5.22;;
38629;SDS011;24384;51.988;4.644;2023-10-08T08:57:04;19.33;;;6.07;;
38629;SDS011;24384;51.988;4.644;2023-10-08T08:59:31;18.02;;;5.63;;
38629;SDS011;24384;51.988;4.644;2023-10-08T09:01:57;22.63;;;5.43;;
38629;SDS011;24384;51.988;4.644;2023-10-08T09:04:27;15.55;;;4.40;;
38629;SDS011;24384;51.988;4.644;2023-10-08T09:06:54;13.57;;;4.53;;
38629;SDS011;24384;51.988;4.644;2023-10-08T09:09:20;17.73;;;4.38;;
38629;SDS011;24384;51.988;4.644;2023-10-08T09:11:49;15.82;;;4.55;;
38629;SDS011;24384;51.988;4.644;2023-10-08T09:14:20;15.98;;;4.72;;
38629;SDS011;24384;51.988;4.644;2023-10-08T09:16:50;17.38;;;3.90;;
38629;SDS011;24384;51.988;4.644;2023-10-08T09:19:16;16.70;;;4.53;;
38629;SDS011;24384;51.988;4.644;2023-10-08T09:24:30;15.07;;;5.28;;
38629;SDS011;24384;51.988;4.644;2023-10-08T09:26:58;11.60;;;4.82;;
38629;SDS011;24384;51.988;4.644;2023-10-08T09:29:24;16.13;;;4.05;;
38629;SDS011;24384;51.988;4.644;2023-10-08T09:31:52;14.63;;;4.28;;
38629;SDS011;24384;51.988;4.644;2023-10-08T09:34:20;13.45;;;4.40;;
38629;SDS011;24384;51.988;4.644;2023-10-08T09:36:47;17.35;;;3.90;;
38629;SDS011;24384;51.988;4.644;2023-10-08T09:39:12;8.85;;;3.88;;
38629;SDS011;24384;51.988;4.644;2023-10-08T09:41:48;11.10;;;4.80;;
38629;SDS011;24384;51.988;4.644;2023-10-08T09:44:16;8.68;;;3.90;;
38629;SDS011;24384;51.988;4.644;2023-10-08T09:46:44;10.35;;;3.83;;
38629;SDS011;24384;51.988;4.644;2023-10-08T09:49:17;12.20;;;4.63;;
38629;SDS011;24384;51.988;4.644;2023-10-08T09:51:49;12.18;;;5.13;;
38629;SDS011;24384;51.988;4.644;2023-10-08T09:54:18;16.42;;;5.10;;
38629;SDS011;24384;51.988;4.644;2023-10-08T09:56:49;10.30;;;4.50;;
38629;SDS011;24384;51.988;4.644;2023-10-08T09:59:15;14.27;;;5.50;;
38629;SDS011;24384;51.988;4.644;2023-10-08T10:01:41;16.88;;;5.00;;
38629;SDS011;24384;51.988;4.644;2023-10-08T10:04:09;15.23;;;5.55;;
38629;SDS011;24384;51.988;4.644;2023-10-08T10:06:38;16.00;;;4.80;;
38629;SDS011;24384;51.988;4.644;2023-10-08T10:09:07;17.05;;;4.75;;
38629;SDS011;24384;51.988;4.644;2023-10-08T10:11:40;16.58;;;5.10;;
38629;SDS011;24384;51.988;4.644;2023-10-08T10:14:05;13.45;;;5.45;;
38629;SDS011;24384;51.988;4.644;2023-10-08T10:16:31;12.32;;;4.43;;
38629;SDS011;24384;51.988;4.644;2023-10-08T10:18:57;15.43;;;5.55;;
38629;SDS011;24384;51.988;4.644;2023-10-08T10:21:25;14.75;;;5.70;;
38629;SDS011;24384;51.988;4.644;2023-10-08T10:23:51;14.18;;;5.25;;
38629;SDS011;24384;51.988;4.644;2023-10-08T10:26:23;14.77;;;5.57;;
38629;SDS011;24384;51.988;4.644;2023-10-08T10:31:43;15.57;;;6.30;;
38629;SDS011;24384;51.988;4.644;2023-10-08T10:34:11;18.48;;;5.93;;
38629;SDS011;24384;51.988;4.644;2023-10-08T10:36:41;15.15;;;6.10;;
38629;SDS011;24384;51.988;4.644;2023-10-08T10:39:07;11.65;;;5.13;;
38629;SDS011;24384;51.988;4.644;2023-10-08T10:41:41;23.10;;;5.97;;
38629;SDS011;24384;51.988;4.644;2023-10-08T10:44:13;17.35;;;5.22;;
38629;SDS011;24384;51.988;4.644;2023-10-08T10:46:45;16.67;;;5.72;;
38629;SDS011;24384;51.988;4.644;2023-10-08T10:49:18;15.93;;;6.50;;
38629;SDS011;24384;51.988;4.644;2023-10-08T10:51:50;16.60;;;5.57;;
38629;SDS011;24384;51.988;4.644;2023-10-08T10:54:22;14.05;;;5.38;;
38629;SDS011;24384;51.988;4.644;2023-10-08T10:56:48;14.75;;;5.22;;
38629;SDS011;24384;51.988;4.644;2023-10-08T10:59:34;13.93;;;4.85;;
38629;SDS011;24384;51.988;4.644;2023-10-08T11:02:03;14.52;;;6.32;;
38629;SDS011;24384;51.988;4.644;2023-10-08T11:04:46;11.73;;;5.05;;
38629;SDS011;24384;51.988;4.644;2023-10-08T11:07:18;17.30;;;5.30;;
38629;SDS011;24384;51.988;4.644;2023-10-08T11:09:48;13.18;;;5.68;;
38629;SDS011;24384;51.988;4.644;2023-10-08T11:12:16;14.77;;;5.57;;
38629;SDS011;24384;51.988;4.644;2023-10-08T11:14:57;19.02;;;5.53;;
38629;SDS011;24384;51.988;4.644;2023-10-08T11:17:24;22.23;;;6.05;;
38629;SDS011;24384;51.988;4.644;2023-10-08T11:19:51;18.52;;;6.55;;
38629;SDS011;24384;51.988;4.644;2023-10-08T11:22:17;15.40;;;5.50;;
38629;SDS011;24384;51.988;4.644;2023-10-08T11:24:46;20.10;;;6.80;;
38629;SDS011;24384;51.988;4.644;2023-10-08T11:27:13;13.13;;;6.32;;
38629;SDS011;24384;51.988;4.644;2023-10-08T11:29:46;14.13;;;5.32;;
38629;SDS011;24384;51.988;4.644;2023-10-08T11:32:13;19.52;;;5.88;;
38629;SDS011;24384;51.988;4.644;2023-10-08T11:34:42;16.33;;;6.78;;
38629;SDS011;24384;51.988;4.644;2023-10-08T11:37:14;15.05;;;6.72;;
38629;SDS011;24384;51.988;4.644;2023-10-08T11:39:50;15.85;;;6.53;;
38629;SDS011;24384;51.988;4.644;2023-10-08T11:42:17;19.30;;;7.00;;
38629;SDS011;24384;51.988;4.644;2023-10-08T11:44:58;15.07;;;6.60;;
38629;SDS011;24384;51.988;4.644;2023-10-08T11:47:42;17.93;;;7.37;;
38629;SDS011;24384;51.988;4.644;2023-10-08T11:50:09;15.35;;;7.20;;
38629;SDS011;24384;51.988;4.644;2023-10-08T11:52:38;17.42;;;7.05;;
38629;SDS011;24384;51.988;4.644;2023-10-08T11:55:07;15.52;;;7.45;;
38629;SDS011;24384;51.988;4.644;2023-10-08T11:57:33;26.52;;;7.95;;
38629;SDS011;24384;51.988;4.644;2023-10-08T12:00:01;20.23;;;7.40;;
38629;SDS011;24384;51.988;4.644;2023-10-08T12:02:44;16.85;;;6.68;;
38629;SDS011;24384;51.988;4.644;2023-10-08T12:05:10;15.88;;;7.00;;
38629;SDS011;24384;51.988;4.644;2023-10-08T12:07:43;14.45;;;7.72;;
38629;SDS011;24384;51.988;4.644;2023-10-08T12:10:12;14.68;;;7.55;;
38629;SDS011;24384;51.988;4.644;2023-10-08T12:12:38;15.25;;;6.85;;
38629;SDS011;24384;51.988;4.644;2023-10-08T12:15:04;18.70;;;8.45;;
38629;SDS011;24384;51.988;4.644;2023-10-08T12:17:32;21.08;;;7.38;;
38629;SDS011;24384;51.988;4.644;2023-10-08T12:20:07;14.82;;;7.80;;
38629;SDS011;24384;51.988;4.644;2023-10-08T12:22:51;13.98;;;7.50;;
38629;SDS011;24384;51.988;4.644;2023-10-08T12:25:16;15.93;;;7.78;;
38629;SDS011;24384;51.988;4.644;2023-10-08T12:27:42;14.32;;;7.30;;
38629;SDS011;24384;51.988;4.644;2023-10-08T12:30:08;20.02;;;6.55;;
38629;SDS011;24384;51.988;4.644;2023-10-08T12:32:36;20.73;;;8.27;;
38629;SDS011;24384;51.988;4.644;2023-10-08T12:35:05;15.88;;;7.88;;
38629;SDS011;24384;51.988;4.644;2023-10-08T12:37:37;20.30;;;8.20;;
38629;SDS011;24384;51.988;4.644;2023-10-08T12:40:04;16.05;;;8.68;;
38629;SDS011;24384;51.988;4.644;2023-10-08T12:42:37;16.25;;;9.48;;
38629;SDS011;24384;51.988;4.644;2023-10-08T12:45:09;14.95;;;8.82;;
38629;SDS011;24384;51.988;4.644;2023-10-08T12:47:37;17.85;;;9.65;;
38629;SDS011;24384;51.988;4.644;2023-10-08T12:50:03;16.65;;;9.93;;
38629;SDS011;24384;51.988;4.644;2023-10-08T12:52:32;21.45;;;11.00;;
38629;SDS011;24384;51.988;4.644;2023-10-08T12:54:59;19.05;;;10.70;;
38629;SDS011;24384;51.988;4.644;2023-10-08T12:57:29;17.83;;;11.55;;
38629;SDS011;24384;51.988;4.644;2023-10-08T12:59:58;21.13;;;12.10;;
38629;SDS011;24384;51.988;4.644;2023-10-08T13:02:24;16.38;;;10.73;;
38629;SDS011;24384;51.988;4.644;2023-10-08T13:04:53;18.13;;;11.25;;
38629;SDS011;24384;51.988;4.644;2023-10-08T13:07:20;20.90;;;11.07;;
38629;SDS011;24384;51.988;4.644;2023-10-08T13:09:46;22.58;;;12.68;;
38629;SDS011;24384;51.988;4.644;2023-10-08T13:12:12;21.98;;;10.75;;
38629;SDS011;24384;51.988;4.644;2023-10-08T13:14:39;19.67;;;11.57;;
38629;SDS011;24384;51.988;4.644;2023-10-08T13:17:04;18.23;;;9.93;;
38629;SDS011;24384;51.988;4.644;2023-10-08T13:19:35;22.40;;;11.77;;
38629;SDS011;24384;51.988;4.644;2023-10-08T13:22:01;21.90;;;11.70;;
38629;SDS011;24384;51.988;4.644;2023-10-08T13:24:29;26.40;;;10.93;;
38629;SDS011;24384;51.988;4.644;2023-10-08T13:26:54;24.30;;;11.00;;
38629;SDS011;24384;51.988;4.644;2023-10-08T13:29:19;18.70;;;10.68;;
38629;SDS011;24384;51.988;4.644;2023-10-08T13:31:45;19.60;;;9.90;;
38629;SDS011;24384;51.988;4.644;2023-10-08T13:34:11;16.90;;;10.15;;
38629;SDS011;24384;51.988;4.644;2023-10-08T13:36:37;13.65;;;8.15;;
38629;SDS011;24384;51.988;4.644;2023-10-08T13:39:04;14.85;;;8.50;;
38629;SDS011;24384;51.988;4.644;2023-10-08T13:41:34;18.48;;;8.48;;
38629;SDS011;24384;51.988;4.644;2023-10-08T13:44:00;15.13;;;9.05;;
38629;SDS011;24384;51.988;4.644;2023-10-08T13:46:30;18.60;;;9.52;;
38629;SDS011;24384;51.988;4.644;2023-10-08T13:48:56;15.38;;;8.05;;
38629;SDS011;24384;51.988;4.644;2023-10-08T13:51:24;17.88;;;8.27;;
38629;SDS011;24384;51.988;4.644;2023-10-08T13:53:51;19.35;;;8.63;;
38629;SDS011;24384;51.988;4.644;2023-10-08T13:56:24;13.38;;;9.15;;
38629;SDS011;24384;51.988;4.644;2023-10-08T13:58:51;19.88;;;8.77;;
38629;SDS011;24384;51.988;4.644;2023-10-08T14:01:22;17.25;;;8.50;;
38629;SDS011;24384;51.988;4.644;2023-10-08T14:03:50;15.30;;;8.02;;
38629;SDS011;24384;51.988;4.644;2023-10-08T14:06:21;19.45;;;8.70;;
38629;SDS011;24384;51.988;4.644;2023-10-08T14:08:47;14.90;;;8.77;;
38629;SDS011;24384;51.988;4.644;2023-10-08T14:11:19;12.23;;;7.63;;
38629;SDS011;24384;51.988;4.644;2023-10-08T14:13:48;18.83;;;9.27;;
38629;SDS011;24384;51.988;4.644;2023-10-08T14:16:16;20.95;;;8.85;;
38629;SDS011;24384;51.988;4.644;2023-10-08T14:18:42;20.05;;;9.85;;
38629;SDS011;24384;51.988;4.644;2023-10-08T14:21:13;16.10;;;8.77;;
38629;SDS011;24384;51.988;4.644;2023-10-08T14:23:40;18.27;;;9.65;;
38629;SDS011;24384;51.988;4.644;2023-10-08T14:26:06;19.48;;;9.00;;
38629;SDS011;24384;51.988;4.644;2023-10-08T14:28:33;16.65;;;8.82;;
38629;SDS011;24384;51.988;4.644;2023-10-08T14:31:08;23.05;;;8.27;;
38629;SDS011;24384;51.988;4.644;2023-10-08T14:33:34;18.20;;;8.30;;
38629;SDS011;24384;51.988;4.644;2023-10-08T14:36:10;16.63;;;8.27;;
38629;SDS011;24384;51.988;4.644;2023-10-08T14:38:54;16.58;;;8.75;;
38629;SDS011;24384;51.988;4.644;2023-10-08T14:41:38;15.10;;;8.50;;
38629;SDS011;24384;51.988;4.644;2023-10-08T14:44:22;19.27;;;10.10;;
38629;SDS011;24384;51.988;4.644;2023-10-08T14:46:48;15.57;;;8.50;;
38629;SDS011;24384;51.988;4.644;2023-10-08T14:49:15;18.85;;;8.50;;
38629;SDS011;24384;51.988;4.644;2023-10-08T14:51:40;22.50;;;9.18;;
38629;SDS011;24384;51.988;4.644;2023-10-08T14:54:06;19.48;;;8.45;;
38629;SDS011;24384;51.988;4.644;2023-10-08T14:56:32;20.95;;;8.68;;
38629;SDS011;24384;51.988;4.644;2023-10-08T14:58:59;18.45;;;8.73;;
38629;SDS011;24384;51.988;4.644;2023-10-08T15:01:26;13.27;;;7.82;;
38629;SDS011;24384;51.988;4.644;2023-10-08T15:03:51;14.40;;;7.75;;
38629;SDS011;24384;51.988;4.644;2023-10-08T15:06:17;18.33;;;9.48;;